sensor_id;sensor_type;location;lat;lon;timestamp;pressure;altitude;pressure_sealevel;temperature;humidity
42125;BME280;27787;44.594;11.046;2023-03-20T00:00:20;101400.09;;;12.25;100.00
42125;BME280;27787;44.594;11.046;2023-03-20T00:03:09;101398.34;;;12.29;100.00
42125;BME280;27787;44.594;11.046;2023-03-20T00:05:54;101400.13;;;12.30;100.00
42125;BME280;27787;44.594;11.046;2023-03-20T00:08:38;101401.00;;;12.29;100.00
42125;BME280;27787;44.594;11.046;2023-03-20T00:14:12;101407.06;;;12.22;100.00
42125;BME280;27787;44.594;11.046;2023-03-20T00:16:57;101400.00;;;12.21;100.00
42125;BME280;27787;44.594;11.046;2023-03-20T00:19:41;101401.78;;;12.22;100.00
42125;BME280;27787;44.594;11.046;2023-03-20T00:22:25;101404.38;;;12.17;100.00
42125;BME280;27787;44.594;11.046;2023-03-20T00:25:14;101403.41;;;12.10;100.00
42125;BME280;27787;44.594;11.046;2023-03-20T00:27:59;101403.38;;;12.04;100.00
42125;BME280;27787;44.594;11.046;2023-03-20T00:30:43;101404.22;;;12.00;100.00
42125;BME280;27787;44.594;11.046;2023-03-20T00:33:27;101402.50;;;12.07;100.00
42125;BME280;27787;44.594;11.046;2023-03-20T00:36:11;101403.47;;;12.14;100.00
42125;BME280;27787;44.594;11.046;2023-03-20T00:38:57;101400.00;;;12.21;100.00
42125;BME280;27787;44.594;11.046;2023-03-20T00:41:43;101403.56;;;12.23;100.00
42125;BME280;27787;44.594;11.046;2023-03-20T00:44:39;101407.97;;;12.22;100.00
42125;BME280;27787;44.594;11.046;2023-03-20T00:47:28;101401.75;;;12.19;100.00
42125;BME280;27787;44.594;11.046;2023-03-20T00:50:22;101392.94;;;12.20;100.00
42125;BME280;27787;44.594;11.046;2023-03-20T00:53:10;101396.47;;;12.19;100.00
42125;BME280;27787;44.594;11.046;2023-03-20T00:55:55;101394.69;;;12.19;100.00
42125;BME280;27787;44.594;11.046;2023-03-20T00:58:38;101393.84;;;12.20;100.00
42125;BME280;27787;44.594;11.046;2023-03-20T01:01:23;101383.25;;;12.20;100.00
42125;BME280;27787;44.594;11.046;2023-03-20T01:04:12;101383.25;;;12.22;100.00
42125;BME280;27787;44.594;11.046;2023-03-20T01:06:57;101378.84;;;12.24;100.00
42125;BME280;27787;44.594;11.046;2023-03-20T01:09:41;101374.44;;;12.21;100.00
42125;BME280;27787;44.594;11.046;2023-03-20T01:12:25;101368.22;;;12.18;100.00
42125;BME280;27787;44.594;11.046;2023-03-20T01:15:20;101366.44;;;12.17;100.00
42125;BME280;27787;44.594;11.046;2023-03-20T01:18:04;101362.06;;;12.20;100.00
42125;BME280;27787;44.594;11.046;2023-03-20T01:20:49;101364.69;;;12.19;100.00
42125;BME280;27787;44.594;11.046;2023-03-20T01:23:35;101360.28;;;12.19;100.00
42125;BME280;27787;44.594;11.046;2023-03-20T01:26:25;101355.00;;;12.18;100.00
42125;BME280;27787;44.594;11.046;2023-03-20T01:29:18;101356.75;;;12.17;100.00
42125;BME280;27787;44.594;11.046;2023-03-20T01:32:04;101358.47;;;12.12;100.00
42125;BME280;27787;44.594;11.046;2023-03-20T01:34:52;101357.53;;;12.08;100.00
42125;BME280;27787;44.594;11.046;2023-03-20T01:37:37;101362.81;;;12.07;100.00
42125;BME280;27787;44.594;11.046;2023-03-20T01:40:32;101360.19;;;12.08;100.00
42125;BME280;27787;44.594;11.046;2023-03-20T01:43:20;101361.94;;;12.08;100.00
42125;BME280;27787;44.594;11.046;2023-03-20T01:49:06;101355.88;;;12.17;100.00
42125;BME280;27787;44.594;11.046;2023-03-20T01:51:51;101346.19;;;12.22;100.00
42125;BME280;27787;44.594;11.046;2023-03-20T01:54:37;101343.56;;;12.22;100.00
42125;BME280;27787;44.594;11.046;2023-03-20T01:57:28;101342.66;;;12.20;100.00
42125;BME280;27787;44.594;11.046;2023-03-20T02:00:15;101343.53;;;12.19;100.00
42125;BME280;27787;44.594;11.046;2023-03-20T02:02:59;101336.44;;;12.15;100.00
42125;BME280;27787;44.594;11.046;2023-03-20T02:06:20;101328.44;;;12.10;100.00
42125;BME280;27787;44.594;11.046;2023-03-20T02:09:29;101330.16;;;12.06;100.00
42125;BME280;27787;44.594;11.046;2023-03-20T02:12:15;101332.81;;;12.05;100.00
42125;BME280;27787;44.594;11.046;2023-03-20T02:15:01;101331.03;;;12.05;100.00
42125;BME280;27787;44.594;11.046;2023-03-20T02:18:07;101337.22;;;12.07;100.00
42125;BME280;27787;44.594;11.046;2023-03-20T02:27:33;101338.13;;;12.09;100.00
42125;BME280;27787;44.594;11.046;2023-03-20T02:33:28;101332.72;;;11.97;100.00
42125;BME280;27787;44.594;11.046;2023-03-20T02:48:04;101321.31;;;12.01;100.00
42125;BME280;27787;44.594;11.046;2023-03-20T02:51:14;101317.81;;;12.04;100.00
42125;BME280;27787;44.594;11.046;2023-03-20T02:57:19;101328.41;;;12.05;100.00
42125;BME280;27787;44.594;11.046;2023-03-20T03:00:14;101318.72;;;12.09;100.00
42125;BME280;27787;44.594;11.046;2023-03-20T03:03:10;101316.97;;;12.09;100.00
42125;BME280;27787;44.594;11.046;2023-03-20T03:06:05;101325.78;;;12.08;100.00
42125;BME280;27787;44.594;11.046;2023-03-20T03:09:00;101325.75;;;12.07;100.00
42125;BME280;27787;44.594;11.046;2023-03-20T03:11:53;101323.97;;;12.03;100.00
42125;BME280;27787;44.594;11.046;2023-03-20T03:14:46;101314.28;;;12.03;100.00
42125;BME280;27787;44.594;11.046;2023-03-20T03:17:35;101297.53;;;12.04;100.00
42125;BME280;27787;44.594;11.046;2023-03-20T03:20:28;101299.31;;;12.07;100.00
42125;BME280;27787;44.594;11.046;2023-03-20T03:23:22;101305.50;;;12.10;100.00
42125;BME280;27787;44.594;11.046;2023-03-20T03:26:12;101309.91;;;12.08;100.00
42125;BME280;27787;44.594;11.046;2023-03-20T03:29:00;101294.91;;;12.10;100.00
42125;BME280;27787;44.594;11.046;2023-03-20T03:31:45;101296.75;;;12.15;100.00
42125;BME280;27787;44.594;11.046;2023-03-20T03:34:30;101297.63;;;12.17;100.00
42125;BME280;27787;44.594;11.046;2023-03-20T03:43:02;101299.38;;;12.15;100.00
42125;BME280;27787;44.594;11.046;2023-03-20T03:46:04;101304.66;;;12.13;100.00
42125;BME280;27787;44.594;11.046;2023-03-20T03:48:54;101296.72;;;12.13;100.00
42125;BME280;27787;44.594;11.046;2023-03-20T03:51:41;101290.56;;;12.13;100.00
42125;BME280;27787;44.594;11.046;2023-03-20T03:54:34;101287.81;;;12.03;100.00
42125;BME280;27787;44.594;11.046;2023-03-20T03:57:58;101287.66;;;11.87;100.00
42125;BME280;27787;44.594;11.046;2023-03-20T04:00:45;101297.25;;;11.80;100.00
42125;BME280;27787;44.594;11.046;2023-03-20T04:03:34;101307.88;;;11.83;100.00
42125;BME280;27787;44.594;11.046;2023-03-20T04:06:19;101299.13;;;11.87;100.00
42125;BME280;27787;44.594;11.046;2023-03-20T04:09:04;101300.00;;;11.89;100.00
42125;BME280;27787;44.594;11.046;2023-03-20T04:11:50;101298.28;;;11.93;100.00
42125;BME280;27787;44.594;11.046;2023-03-20T04:14:36;101305.34;;;11.94;100.00
42125;BME280;27787;44.594;11.046;2023-03-20T04:17:20;101303.59;;;11.96;100.00
42125;BME280;27787;44.594;11.046;2023-03-20T04:20:06;101304.47;;;11.96;100.00
42125;BME280;27787;44.594;11.046;2023-03-20T04:22:51;101302.75;;;11.98;100.00
42125;BME280;27787;44.594;11.046;2023-03-20T04:25:36;101308.94;;;11.99;100.00
42125;BME280;27787;44.594;11.046;2023-03-20T04:28:20;101303.66;;;12.00;100.00
42125;BME280;27787;44.594;11.046;2023-03-20T04:31:33;101312.47;;;11.99;100.00
42125;BME280;27787;44.594;11.046;2023-03-20T04:34:46;101311.53;;;11.97;100.00
42125;BME280;27787;44.594;11.046;2023-03-20T04:37:46;101315.06;;;11.96;100.00
42125;BME280;27787;44.594;11.046;2023-03-20T04:40:31;101308.06;;;11.98;100.00
42125;BME280;27787;44.594;11.046;2023-03-20T04:43:16;101307.19;;;11.99;100.00
42125;BME280;27787;44.594;11.046;2023-03-20T04:46:00;101305.31;;;11.91;100.00
42125;BME280;27787;44.594;11.046;2023-03-20T04:48:45;101322.03;;;11.87;100.00
42125;BME280;27787;44.594;11.046;2023-03-20T04:51:29;101314.94;;;11.84;100.00
42125;BME280;27787;44.594;11.046;2023-03-20T04:54:15;101303.38;;;11.77;100.00
42125;BME280;27787;44.594;11.046;2023-03-20T04:57:00;101316.56;;;11.73;100.00
42125;BME280;27787;44.594;11.046;2023-03-20T04:59:44;101318.25;;;11.69;100.00
42125;BME280;27787;44.594;11.046;2023-03-20T05:02:29;101319.16;;;11.71;100.00
42125;BME280;27787;44.594;11.046;2023-03-20T05:05:14;101313.88;;;11.71;100.00
42125;BME280;27787;44.594;11.046;2023-03-20T05:07:58;101325.38;;;11.72;100.00
42125;BME280;27787;44.594;11.046;2023-03-20T05:10:52;101325.38;;;11.73;100.00
42125;BME280;27787;44.594;11.046;2023-03-20T05:13:55;101333.31;;;11.73;100.00
42125;BME280;27787;44.594;11.046;2023-03-20T05:17:11;101320.06;;;11.72;100.00
42125;BME280;27787;44.594;11.046;2023-03-20T05:20:05;101327.06;;;11.68;100.00
42125;BME280;27787;44.594;11.046;2023-03-20T05:22:57;101310.25;;;11.60;100.00
42125;BME280;27787;44.594;11.046;2023-03-20T05:26:04;101318.97;;;11.55;100.00
42125;BME280;27787;44.594;11.046;2023-03-20T05:29:12;101313.66;;;11.51;100.00
42125;BME280;27787;44.594;11.046;2023-03-20T05:32:18;101316.31;;;11.55;100.00
42125;BME280;27787;44.594;11.046;2023-03-20T05:35:28;101328.69;;;11.59;100.00
42125;BME280;27787;44.594;11.046;2023-03-20T05:38:23;101330.44;;;11.57;100.00
42125;BME280;27787;44.594;11.046;2023-03-20T05:41:28;101325.00;;;11.44;100.00
42125;BME280;27787;44.594;11.046;2023-03-20T05:44:33;101329.34;;;11.38;100.00
42125;BME280;27787;44.594;11.046;2023-03-20T05:47:40;101339.88;;;11.36;100.00
42125;BME280;27787;44.594;11.046;2023-03-20T05:50:47;101335.50;;;11.38;100.00
42125;BME280;27787;44.594;11.046;2023-03-20T05:53:55;101347.88;;;11.42;100.00
42125;BME280;27787;44.594;11.046;2023-03-20T05:57:00;101345.31;;;11.47;100.00
42125;BME280;27787;44.594;11.046;2023-03-20T05:59:52;101339.16;;;11.46;100.00
42125;BME280;27787;44.594;11.046;2023-03-20T06:02:55;101349.78;;;11.51;100.00
42125;BME280;27787;44.594;11.046;2023-03-20T06:06:03;101348.03;;;11.51;100.00
42125;BME280;27787;44.594;11.046;2023-03-20T06:08:47;101360.34;;;11.51;100.00
42125;BME280;27787;44.594;11.046;2023-03-20T06:11:32;101362.06;;;11.47;100.00
42125;BME280;27787;44.594;11.046;2023-03-20T06:14:16;101357.59;;;11.45;100.00
42125;BME280;27787;44.594;11.046;2023-03-20T06:17:05;101361.13;;;11.45;100.00
42125;BME280;27787;44.594;11.046;2023-03-20T06:19:50;101369.00;;;11.39;100.00
42125;BME280;27787;44.594;11.046;2023-03-20T06:22:35;101367.09;;;11.31;100.00
42125;BME280;27787;44.594;11.046;2023-03-20T06:25:19;101373.94;;;11.15;100.00
42125;BME280;27787;44.594;11.046;2023-03-20T06:28:03;101378.16;;;11.04;100.00
42125;BME280;27787;44.594;11.046;2023-03-20T06:30:51;101377.97;;;10.91;100.00
42125;BME280;27787;44.594;11.046;2023-03-20T06:33:38;101386.78;;;10.92;100.00
42125;BME280;27787;44.594;11.046;2023-03-20T06:36:23;101395.72;;;10.99;100.00
42125;BME280;27787;44.594;11.046;2023-03-20T06:39:11;101389.72;;;11.10;100.00
42125;BME280;27787;44.594;11.046;2023-03-20T06:41:55;101391.53;;;11.14;100.00
42125;BME280;27787;44.594;11.046;2023-03-20T06:44:42;101394.22;;;11.16;100.00
42125;BME280;27787;44.594;11.046;2023-03-20T06:47:32;101396.06;;;11.20;100.00
42125;BME280;27787;44.594;11.046;2023-03-20T06:50:16;101396.13;;;11.26;100.00
42125;BME280;27787;44.594;11.046;2023-03-20T06:53:01;101403.25;;;11.32;100.00
42125;BME280;27787;44.594;11.046;2023-03-20T06:55:56;101402.47;;;11.39;100.00
42125;BME280;27787;44.594;11.046;2023-03-20T06:58:41;101401.59;;;11.40;100.00
42125;BME280;27787;44.594;11.046;2023-03-20T07:01:25;101396.28;;;11.37;100.00
42125;BME280;27787;44.594;11.046;2023-03-20T07:04:11;101401.56;;;11.35;100.00
42125;BME280;27787;44.594;11.046;2023-03-20T07:07:02;101404.22;;;11.38;100.00
42125;BME280;27787;44.594;11.046;2023-03-20T07:09:47;101412.31;;;11.47;100.00
42125;BME280;27787;44.594;11.046;2023-03-20T07:12:32;101413.19;;;11.46;100.00
42125;BME280;27787;44.594;11.046;2023-03-20T07:15:19;101413.09;;;11.42;100.00
42125;BME280;27787;44.594;11.046;2023-03-20T07:18:04;101410.38;;;11.36;100.00
42125;BME280;27787;44.594;11.046;2023-03-20T07:20:53;101413.88;;;11.33;100.00
42125;BME280;27787;44.594;11.046;2023-03-20T07:23:41;101415.69;;;11.37;100.00
42125;BME280;27787;44.594;11.046;2023-03-20T07:26:25;101421.03;;;11.42;100.00
42125;BME280;27787;44.594;11.046;2023-03-20T07:29:10;101425.50;;;11.46;100.00
42125;BME280;27787;44.594;11.046;2023-03-20T07:31:56;101422.00;;;11.47;100.00
42125;BME280;27787;44.594;11.046;2023-03-20T07:34:45;101422.91;;;11.49;100.00
42125;BME280;27787;44.594;11.046;2023-03-20T07:37:30;101424.56;;;11.44;100.00
42125;BME280;27787;44.594;11.046;2023-03-20T07:40:19;101432.47;;;11.41;100.00
42125;BME280;27787;44.594;11.046;2023-03-20T07:43:32;101433.19;;;11.31;100.00
42125;BME280;27787;44.594;11.046;2023-03-20T07:46:16;101437.50;;;11.24;100.00
42125;BME280;27787;44.594;11.046;2023-03-20T07:49:01;101440.16;;;11.24;100.00
42125;BME280;27787;44.594;11.046;2023-03-20T07:51:46;101437.41;;;11.19;100.00
42125;BME280;27787;44.594;11.046;2023-03-20T07:54:31;101448.81;;;11.15;100.00
42125;BME280;27787;44.594;11.046;2023-03-20T07:57:15;101442.56;;;11.10;100.00
42125;BME280;27787;44.594;11.046;2023-03-20T08:00:00;101438.16;;;11.09;100.00
42125;BME280;27787;44.594;11.046;2023-03-20T08:02:44;101446.94;;;11.08;100.00
42125;BME280;27787;44.594;11.046;2023-03-20T08:05:28;101447.00;;;11.13;100.00
42125;BME280;27787;44.594;11.046;2023-03-20T08:08:13;101452.34;;;11.16;100.00
42125;BME280;27787;44.594;11.046;2023-03-20T08:10:57;101460.38;;;11.22;100.00
42125;BME280;27787;44.594;11.046;2023-03-20T08:13:41;101454.25;;;11.25;100.00
42125;BME280;27787;44.594;11.046;2023-03-20T08:16:25;101453.50;;;11.33;100.00
42125;BME280;27787;44.594;11.046;2023-03-20T08:19:09;101456.31;;;11.45;100.00
42125;BME280;27787;44.594;11.046;2023-03-20T08:21:53;101451.16;;;11.55;100.00
42125;BME280;27787;44.594;11.046;2023-03-20T08:24:38;101459.22;;;11.61;100.00
42125;BME280;27787;44.594;11.046;2023-03-20T08:27:21;101463.50;;;11.54;100.00
42125;BME280;27787;44.594;11.046;2023-03-20T08:30:07;101462.47;;;11.44;100.00
42125;BME280;27787;44.594;11.046;2023-03-20T08:32:52;101472.84;;;11.32;100.00
42125;BME280;27787;44.594;11.046;2023-03-20T08:35:37;101460.38;;;11.22;100.00
42125;BME280;27787;44.594;11.046;2023-03-20T08:38:21;101478.81;;;11.19;100.00
42125;BME280;27787;44.594;11.046;2023-03-20T08:41:06;101467.41;;;11.20;100.00
42125;BME280;27787;44.594;11.046;2023-03-20T08:43:51;101482.41;;;11.22;100.00
42125;BME280;27787;44.594;11.046;2023-03-20T08:46:35;101474.47;;;11.21;100.00
42125;BME280;27787;44.594;11.046;2023-03-20T08:49:19;101474.50;;;11.24;100.00
42125;BME280;27787;44.594;11.046;2023-03-20T08:52:04;101477.25;;;11.32;100.00
42125;BME280;27787;44.594;11.046;2023-03-20T08:54:48;101484.41;;;11.37;100.00
42125;BME280;27787;44.594;11.046;2023-03-20T08:57:33;101482.66;;;11.38;100.00
42125;BME280;27787;44.594;11.046;2023-03-20T09:00:18;101479.09;;;11.36;100.00
42125;BME280;27787;44.594;11.046;2023-03-20T09:03:03;101478.13;;;11.32;100.00
42125;BME280;27787;44.594;11.046;2023-03-20T09:05:49;101481.84;;;11.43;100.00
42125;BME280;27787;44.594;11.046;2023-03-20T09:08:34;101477.59;;;11.53;100.00
42125;BME280;27787;44.594;11.046;2023-03-20T09:11:19;101483.88;;;11.60;100.00
42125;BME280;27787;44.594;11.046;2023-03-20T09:14:04;101483.94;;;11.66;100.00
42125;BME280;27787;44.594;11.046;2023-03-20T09:16:49;101482.25;;;11.71;100.00
42125;BME280;27787;44.594;11.046;2023-03-20T09:19:34;101486.69;;;11.72;100.00
42125;BME280;27787;44.594;11.046;2023-03-20T09:22:21;101484.84;;;11.66;100.00
42125;BME280;27787;44.594;11.046;2023-03-20T09:25:06;101494.44;;;11.60;100.00
42125;BME280;27787;44.594;11.046;2023-03-20T09:27:53;101493.59;;;11.62;100.00
42125;BME280;27787;44.594;11.046;2023-03-20T09:30:38;101492.72;;;11.62;100.00
42125;BME280;27787;44.594;11.046;2023-03-20T09:33:23;101497.91;;;11.56;100.00
42125;BME280;27787;44.594;11.046;2023-03-20T09:36:08;101495.16;;;11.48;100.00
42125;BME280;27787;44.594;11.046;2023-03-20T09:38:54;101495.97;;;11.45;100.00
42125;BME280;27787;44.594;11.046;2023-03-20T09:41:39;101490.75;;;11.48;100.00
42125;BME280;27787;44.594;11.046;2023-03-20T09:48:09;101489.25;;;11.66;100.00
42125;BME280;27787;44.594;11.046;2023-03-20T09:53:55;101481.41;;;11.72;100.00
42125;BME280;27787;44.594;11.046;2023-03-20T09:56:40;101484.09;;;11.75;100.00
42125;BME280;27787;44.594;11.046;2023-03-20T09:59:25;101482.41;;;11.80;100.00
42125;BME280;27787;44.594;11.046;2023-03-20T10:02:14;101483.34;;;11.84;100.00
42125;BME280;27787;44.594;11.046;2023-03-20T10:05:05;101483.44;;;11.90;100.00
42125;BME280;27787;44.594;11.046;2023-03-20T10:08:01;101486.16;;;11.96;100.00
42125;BME280;27787;44.594;11.046;2023-03-20T10:14:35;101495.16;;;12.08;100.00
42125;BME280;27787;44.594;11.046;2023-03-20T10:17:29;101498.75;;;12.14;100.00
42125;BME280;27787;44.594;11.046;2023-03-20T10:20:28;101497.94;;;12.21;100.00
42125;BME280;27787;44.594;11.046;2023-03-20T10:26:27;101494.56;;;12.32;100.00
42125;BME280;27787;44.594;11.046;2023-03-20T10:32:35;101495.56;;;12.42;100.00
42125;BME280;27787;44.594;11.046;2023-03-20T10:35:27;101480.63;;;12.49;100.00
42125;BME280;27787;44.594;11.046;2023-03-20T10:41:21;101477.38;;;12.76;100.00
42125;BME280;27787;44.594;11.046;2023-03-20T10:44:12;101481.00;;;12.85;100.00
42125;BME280;27787;44.594;11.046;2023-03-20T10:47:00;101473.06;;;12.87;100.00
42125;BME280;27787;44.594;11.046;2023-03-20T10:50:05;101472.28;;;12.97;100.00
42125;BME280;27787;44.594;11.046;2023-03-20T10:52:52;101471.50;;;13.10;100.00
42125;BME280;27787;44.594;11.046;2023-03-20T10:55:39;101470.72;;;13.17;100.00
42125;BME280;27787;44.594;11.046;2023-03-20T10:58:29;101469.88;;;13.21;100.00
42125;BME280;27787;44.594;11.046;2023-03-20T11:01:14;101468.13;;;13.23;100.00
42125;BME280;27787;44.594;11.046;2023-03-20T11:03:59;101463.72;;;13.25;100.00
42125;BME280;27787;44.594;11.046;2023-03-20T11:06:53;101463.78;;;13.32;100.00
42125;BME280;27787;44.594;11.046;2023-03-20T11:09:42;101460.25;;;13.33;100.00
42125;BME280;27787;44.594;11.046;2023-03-20T11:12:32;101467.31;;;13.29;100.00
42125;BME280;27787;44.594;11.046;2023-03-20T11:15:26;101462.84;;;13.26;100.00
42125;BME280;27787;44.594;11.046;2023-03-20T11:18:14;101464.59;;;13.27;100.00
42125;BME280;27787;44.594;11.046;2023-03-20T11:21:00;101460.19;;;13.25;100.00
42125;BME280;27787;44.594;11.046;2023-03-20T11:23:45;101459.28;;;13.21;100.00
42125;BME280;27787;44.594;11.046;2023-03-20T11:26:37;101458.41;;;13.22;100.00
42125;BME280;27787;44.594;11.046;2023-03-20T11:29:30;101453.09;;;13.22;100.00
42125;BME280;27787;44.594;11.046;2023-03-20T11:32:30;101449.56;;;13.25;100.00
42125;BME280;27787;44.594;11.046;2023-03-20T11:35:25;101441.69;;;13.31;100.00
42125;BME280;27787;44.594;11.046;2023-03-20T11:38:17;101441.75;;;13.42;100.00
42125;BME280;27787;44.594;11.046;2023-03-20T11:41:03;101433.81;;;13.45;100.00
42125;BME280;27787;44.594;11.046;2023-03-20T11:43:48;101435.59;;;13.49;100.00
42125;BME280;27787;44.594;11.046;2023-03-20T11:46:32;101429.41;;;13.53;100.00
42125;BME280;27787;44.594;11.046;2023-03-20T11:49:19;101423.22;;;13.52;100.00
42125;BME280;27787;44.594;11.046;2023-03-20T11:52:12;101419.75;;;13.61;99.75
42125;BME280;27787;44.594;11.046;2023-03-20T11:54:59;101411.88;;;13.75;98.94
42125;BME280;27787;44.594;11.046;2023-03-20T11:57:44;101415.44;;;13.84;98.10
42125;BME280;27787;44.594;11.046;2023-03-20T12:00:35;101404.84;;;13.92;98.32
42125;BME280;27787;44.594;11.046;2023-03-20T12:09:50;101404.94;;;14.07;97.53
42125;BME280;27787;44.594;11.046;2023-03-20T12:12:43;101398.69;;;14.01;96.31
42125;BME280;27787;44.594;11.046;2023-03-20T12:15:33;101400.47;;;13.94;97.32
42125;BME280;27787;44.594;11.046;2023-03-20T12:18:30;101403.06;;;13.90;97.28
42125;BME280;27787;44.594;11.046;2023-03-20T12:24:26;101400.38;;;13.76;96.88
42125;BME280;27787;44.594;11.046;2023-03-20T12:27:39;101392.41;;;13.76;96.97
42125;BME280;27787;44.594;11.046;2023-03-20T12:30:35;101385.34;;;13.79;97.08
42125;BME280;27787;44.594;11.046;2023-03-20T12:33:31;101379.19;;;13.83;97.09
42125;BME280;27787;44.594;11.046;2023-03-20T12:36:41;101386.28;;;13.89;96.45
42125;BME280;27787;44.594;11.046;2023-03-20T12:39:37;101382.78;;;13.95;95.41
42125;BME280;27787;44.594;11.046;2023-03-20T12:42:56;101383.66;;;14.06;94.98
42125;BME280;27787;44.594;11.046;2023-03-20T12:52:11;101372.22;;;14.27;94.49
42125;BME280;27787;44.594;11.046;2023-03-20T13:06:59;101361.66;;;14.66;89.10
42125;BME280;27787;44.594;11.046;2023-03-20T13:31:00;101349.19;;;14.13;84.53
42125;BME280;27787;44.594;11.046;2023-03-20T13:33:55;101345.66;;;14.24;84.60
42125;BME280;27787;44.594;11.046;2023-03-20T13:39:34;101348.34;;;14.39;83.65
42125;BME280;27787;44.594;11.046;2023-03-20T13:42:23;101344.78;;;14.40;83.13
42125;BME280;27787;44.594;11.046;2023-03-20T13:45:33;101337.72;;;14.43;83.12
42125;BME280;27787;44.594;11.046;2023-03-20T13:48:25;101336.88;;;14.57;82.56
42125;BME280;27787;44.594;11.046;2023-03-20T13:54:34;101335.09;;;14.80;81.13
42125;BME280;27787;44.594;11.046;2023-03-20T14:03:44;101330.63;;;15.16;78.80
42125;BME280;27787;44.594;11.046;2023-03-20T14:09:34;101324.34;;;15.35;75.70
42125;BME280;27787;44.594;11.046;2023-03-20T14:12:23;101330.56;;;15.34;75.79
42125;BME280;27787;44.594;11.046;2023-03-20T14:15:10;101323.47;;;15.38;75.47
42125;BME280;27787;44.594;11.046;2023-03-20T14:17:54;101319.88;;;15.46;73.08
42125;BME280;27787;44.594;11.046;2023-03-20T14:20:40;101323.44;;;15.42;72.56
42125;BME280;27787;44.594;11.046;2023-03-20T14:26:36;101326.94;;;15.53;73.19
42125;BME280;27787;44.594;11.046;2023-03-20T14:29:34;101318.91;;;15.73;73.32
42125;BME280;27787;44.594;11.046;2023-03-20T14:35:30;101324.94;;;16.01;73.30
42125;BME280;27787;44.594;11.046;2023-03-20T14:38:56;101315.25;;;15.92;70.92
42125;BME280;27787;44.594;11.046;2023-03-20T14:41:52;101312.59;;;15.88;71.28
42125;BME280;27787;44.594;11.046;2023-03-20T14:47:43;101310.81;;;15.93;71.22
42125;BME280;27787;44.594;11.046;2023-03-20T14:50:31;101316.91;;;16.10;71.38
42125;BME280;27787;44.594;11.046;2023-03-20T14:53:22;101323.06;;;16.21;70.41
42125;BME280;27787;44.594;11.046;2023-03-20T14:56:13;101314.97;;;16.35;70.24
42125;BME280;27787;44.594;11.046;2023-03-20T15:01:52;101317.53;;;16.49;68.15
42125;BME280;27787;44.594;11.046;2023-03-20T15:04:39;101322.03;;;16.39;69.15
42125;BME280;27787;44.594;11.046;2023-03-20T15:07:27;101321.16;;;16.37;69.45
42125;BME280;27787;44.594;11.046;2023-03-20T15:10:13;101314.94;;;16.38;70.14
42125;BME280;27787;44.594;11.046;2023-03-20T15:12:57;101310.38;;;16.51;70.49
42125;BME280;27787;44.594;11.046;2023-03-20T15:16:04;101316.44;;;16.76;68.69
42125;BME280;27787;44.594;11.046;2023-03-20T15:18:51;101315.41;;;16.94;68.48
42125;BME280;27787;44.594;11.046;2023-03-20T15:21:37;101309.81;;;17.15;69.33
42125;BME280;27787;44.594;11.046;2023-03-20T15:24:27;101316.78;;;17.28;66.56
42125;BME280;27787;44.594;11.046;2023-03-20T15:27:12;101314.25;;;17.16;66.84
42125;BME280;27787;44.594;11.046;2023-03-20T15:29:59;101318.19;;;16.82;67.42
42125;BME280;27787;44.594;11.046;2023-03-20T15:32:45;101317.38;;;16.70;67.76
42125;BME280;27787;44.594;11.046;2023-03-20T15:35:29;101316.72;;;16.38;70.12
42125;BME280;27787;44.594;11.046;2023-03-20T15:38:15;101310.69;;;16.13;71.73
42125;BME280;27787;44.594;11.046;2023-03-20T15:41:04;101322.31;;;16.03;73.29
42125;BME280;27787;44.594;11.046;2023-03-20T15:43:49;101325.91;;;15.88;73.31
42125;BME280;27787;44.594;11.046;2023-03-20T15:46:33;101322.41;;;15.81;73.94
42125;BME280;27787;44.594;11.046;2023-03-20T15:49:18;101309.13;;;15.78;73.99
42125;BME280;27787;44.594;11.046;2023-03-20T15:52:34;101316.22;;;15.75;73.82
42125;BME280;27787;44.594;11.046;2023-03-20T15:55:22;101326.88;;;15.78;74.42
42125;BME280;27787;44.594;11.046;2023-03-20T15:58:07;101323.31;;;15.79;73.74
42125;BME280;27787;44.594;11.046;2023-03-20T16:00:51;101318.88;;;15.81;73.47
42125;BME280;27787;44.594;11.046;2023-03-20T16:03:37;101317.09;;;15.80;72.96
42125;BME280;27787;44.594;11.046;2023-03-20T16:06:23;101318.88;;;15.79;73.65
42125;BME280;27787;44.594;11.046;2023-03-20T16:09:12;101323.28;;;15.89;73.78
42125;BME280;27787;44.594;11.046;2023-03-20T16:12:00;101322.31;;;16.03;72.59
42125;BME280;27787;44.594;11.046;2023-03-20T16:14:49;101315.19;;;16.06;72.16
42125;BME280;27787;44.594;11.046;2023-03-20T16:17:33;101324.91;;;16.09;72.00
42125;BME280;27787;44.594;11.046;2023-03-20T16:20:19;101319.66;;;15.97;72.34
42125;BME280;27787;44.594;11.046;2023-03-20T16:23:06;101317.94;;;15.88;73.03
42125;BME280;27787;44.594;11.046;2023-03-20T16:25:56;101326.84;;;15.81;73.18
42125;BME280;27787;44.594;11.046;2023-03-20T16:28:40;101319.81;;;15.71;73.89
42125;BME280;27787;44.594;11.046;2023-03-20T16:31:26;101329.59;;;15.64;74.59
42125;BME280;27787;44.594;11.046;2023-03-20T16:34:21;101328.72;;;15.63;75.37
42125;BME280;27787;44.594;11.046;2023-03-20T16:37:22;101322.50;;;15.61;74.91
42125;BME280;27787;44.594;11.046;2023-03-20T16:40:16;101329.59;;;15.56;74.97